Time;durP1;ratioP1;P1;durP2;ratioP2;P2;SDS_P1;SDS_P2;PMS_P1;PMS_P2;Temp;Humidity;BMP_temperature;BMP_pressure;BME280_temperature;BME280_humidity;BME280_pressure;Samples;Min_cycle;Max_cycle;Signal;HPM_P1;HPM_P2
2023/03/13 00:01:29;;;;;;;0.90;0.20;;;;;;;15.71;100.00;97182.81;7394733;19;20070;-62
2023/03/13 00:03:55;;;;;;;0.30;0.30;;;;;;;15.61;100.00;97184.03;7391587;19;20078;-62
2023/03/13 00:06:24;;;;;;;1.98;0.10;;;;;;;15.64;100.00;97185.69;7393058;19;20007;-62
2023/03/13 00:08:50;;;;;;;2.38;0.17;;;;;;;15.64;100.00;97192.03;7393232;19;20090;-59
2023/03/13 00:11:17;;;;;;;1.27;0.28;;;;;;;15.60;100.00;97191.69;7393522;19;20111;-60
2023/03/13 00:13:43;;;;;;;0.10;0.10;;;;;;;15.69;100.00;97191.06;7393777;19;20022;-60
2023/03/13 00:16:15;;;;;;;0.20;0.20;;;;;;;15.69;100.00;97190.31;7396041;19;20010;-60
2023/03/13 00:18:49;;;;;;;0.30;0.28;;;;;;;15.68;100.00;97191.66;7391796;19;20062;-59
2023/03/13 00:21:17;;;;;;;0.10;0.10;;;;;;;15.72;100.00;97186.38;7395117;19;20022;-60
2023/03/13 00:23:44;;;;;;;0.35;0.22;;;;;;;15.77;100.00;97180.50;7390581;19;20014;-60
2023/03/13 00:26:13;;;;;;;0.20;0.20;;;;;;;15.79;100.00;97166.63;7392955;19;20352;-60
2023/03/13 00:28:41;;;;;;;0.10;0.10;;;;;;;15.66;100.00;97174.63;7391676;19;20033;-60
2023/03/13 00:31:10;;;;;;;0.50;0.28;;;;;;;15.74;100.00;97161.28;7394418;19;20021;-60
2023/03/13 00:33:48;;;;;;;0.40;0.20;;;;;;;15.82;100.00;97150.72;7392949;19;20023;-60
2023/03/13 00:36:20;;;;;;;2.50;0.25;;;;;;;15.82;100.00;97147.91;7392373;19;20021;-60
2023/03/13 00:38:47;;;;;;;0.10;0.10;;;;;;;15.83;100.00;97143.78;7392526;19;20039;-60
2023/03/13 00:41:21;;;;;;;0.15;0.10;;;;;;;15.94;100.00;97146.09;7394448;19;20022;-60
2023/03/13 00:43:48;;;;;;;0.43;0.28;;;;;;;15.99;100.00;97133.88;7391959;19;20015;-60
2023/03/13 00:46:16;;;;;;;1.45;0.10;;;;;;;16.00;100.00;97126.22;7393198;19;20019;-60
2023/03/13 00:48:43;;;;;;;0.22;0.22;;;;;;;16.00;100.00;97118.53;7392655;19;20466;-61
2023/03/13 00:51:13;;;;;;;0.20;0.10;;;;;;;16.03;100.00;97114.56;7392202;19;20551;-61
2023/03/13 00:53:39;;;;;;;0.20;0.20;;;;;;;15.97;100.00;97119.69;7391903;19;20031;-60
2023/03/13 00:56:14;;;;;;;0.82;0.35;;;;;;;15.98;100.00;97115.56;7392110;19;20100;-60
2023/03/13 00:58:43;;;;;;;0.20;0.20;;;;;;;16.03;100.00;97100.50;7395430;19;20018;-61
2023/03/13 01:01:10;;;;;;;0.73;0.30;;;;;;;15.96;100.00;97104.16;7401009;19;20039;-60
2023/03/13 01:03:37;;;;;;;8.23;0.40;;;;;;;15.98;100.00;97092.34;7398920;19;20025;-60
2023/03/13 01:06:07;;;;;;;0.20;0.20;;;;;;;15.99;100.00;97088.97;7399726;19;20078;-60
2023/03/13 01:08:33;;;;;;;0.73;0.10;;;;;;;16.00;100.00;97090.47;7398980;19;20011;-61
2023/03/13 01:11:13;;;;;;;0.13;0.10;;;;;;;16.06;100.00;97074.09;7398414;19;20010;-61
2023/03/13 01:13:40;;;;;;;0.10;0.10;;;;;;;16.11;100.00;97073.09;7400010;19;20010;-61
2023/03/13 01:16:07;;;;;;;0.20;0.20;;;;;;;16.29;100.00;97049.25;7401167;19;20015;-61
2023/03/13 01:18:35;;;;;;;5.35;0.55;;;;;;;16.32;100.00;97036.88;7396786;19;20363;-61
2023/03/13 01:21:02;;;;;;;0.20;0.10;;;;;;;16.33;100.00;97010.25;7399821;19;20011;-61
2023/03/13 01:23:28;;;;;;;0.60;0.30;;;;;;;16.33;100.00;96990.59;7395390;19;20049;-61
2023/03/13 01:25:55;;;;;;;0.13;0.13;;;;;;;16.28;100.00;96966.34;7398802;19;20007;-61
2023/03/13 01:28:23;;;;;;;0.28;0.20;;;;;;;16.40;100.00;96953.25;7397704;19;20019;-62
2023/03/13 01:30:50;;;;;;;0.22;0.10;;;;;;;16.32;100.00;96951.88;7398194;19;20022;-62
2023/03/13 01:33:16;;;;;;;0.10;0.00;;;;;;;16.30;100.00;96938.44;7396123;19;20013;-62
2023/03/13 01:35:42;;;;;;;0.20;0.10;;;;;;;16.22;100.00;96925.84;7397904;19;20010;-62
2023/03/13 01:38:09;;;;;;;0.10;0.10;;;;;;;16.18;100.00;96954.31;7397338;19;20091;-62
2023/03/13 01:40:42;;;;;;;0.20;0.20;;;;;;;16.23;100.00;96967.34;7398550;19;20022;-62
2023/03/13 01:43:22;;;;;;;1.35;0.13;;;;;;;16.33;100.00;96956.19;7396586;19;20024;-61
2023/03/13 01:46:20;;;;;;;0.10;0.10;;;;;;;16.32;100.00;96952.63;7398247;19;20006;-61
2023/03/13 01:49:08;;;;;;;0.10;0.10;;;;;;;16.30;100.00;96952.47;7396719;19;20014;-62
2023/03/13 01:51:50;;;;;;;0.10;0.10;;;;;;;16.36;100.00;96944.50;7400877;19;20024;-62
2023/03/13 01:54:43;;;;;;;1.65;0.10;;;;;;;28.18;96.31;96924.19;7396475;19;20018;-61
2023/03/13 01:57:24;;;;;;;0.15;0.15;;;;;;;21.58;100.00;96937.44;7396273;19;20046;-61
2023/03/13 02:00:03;;;;;;;0.10;0.00;;;;;;;21.62;100.00;96929.16;7395463;19;20039;-61
2023/03/13 02:02:43;;;;;;;0.10;0.10;;;;;;;18.42;100.00;96934.28;7400907;19;20014;-61
2023/03/13 02:05:09;;;;;;;0.10;0.10;;;;;;;17.19;100.00;96928.28;7394541;19;20015;-61
2023/03/13 02:07:43;;;;;;;0.10;0.00;;;;;;;17.00;100.00;96928.28;7397973;19;20086;-61
2023/03/13 02:10:11;;;;;;;0.90;0.17;;;;;;;16.88;100.00;96921.75;7397028;19;20339;-61
2023/03/13 02:12:39;;;;;;;0.40;0.22;;;;;;;16.90;100.00;96916.25;7401537;19;20006;-62
2023/03/13 02:15:10;;;;;;;0.10;0.10;;;;;;;16.86;100.00;96913.91;7399165;19;20007;-61
2023/03/13 02:17:39;;;;;;;0.13;0.13;;;;;;;16.98;100.00;96919.69;7394549;19;20010;-61
2023/03/13 02:20:06;;;;;;;0.20;0.20;;;;;;;16.96;100.00;96922.34;7396987;19;20018;-61
2023/03/13 02:22:53;;;;;;;0.10;0.00;;;;;;;16.93;100.00;96906.66;7400036;19;20030;-61
2023/03/13 02:25:29;;;;;;;0.10;0.10;;;;;;;16.95;100.00;96899.13;7392784;19;20015;-61
2023/03/13 02:28:00;;;;;;;0.15;0.15;;;;;;;17.40;100.00;96905.94;7395180;19;20044;-61
2023/03/13 02:30:29;;;;;;;0.10;0.10;;;;;;;17.90;100.00;96872.97;7395315;19;20015;-62
2023/03/13 02:32:55;;;;;;;0.32;0.20;;;;;;;17.56;100.00;96876.19;7395961;19;20066;-62
2023/03/13 02:35:23;;;;;;;0.10;0.10;;;;;;;18.37;100.00;96871.28;7395360;19;20026;-61
2023/03/13 02:37:53;;;;;;;0.15;0.15;;;;;;;17.61;100.00;96871.56;7394734;19;20015;-61
2023/03/13 02:40:26;;;;;;;0.10;0.10;;;;;;;17.68;100.00;96853.75;7394407;19;20519;-61
2023/03/13 02:42:59;;;;;;;0.20;0.10;;;;;;;17.52;100.00;96853.34;7394127;19;20014;-61
2023/03/13 02:45:26;;;;;;;0.10;0.00;;;;;;;17.70;100.00;96851.84;7394072;19;20014;-62
2023/03/13 02:47:52;;;;;;;0.10;0.10;;;;;;;17.42;100.00;96850.53;7396077;19;20018;-61
2023/03/13 02:50:19;;;;;;;0.10;0.00;;;;;;;17.24;100.00;96835.16;7395572;19;20014;-61
2023/03/13 02:52:49;;;;;;;0.10;0.10;;;;;;;17.18;100.00;96836.81;7393924;19;20039;-61
2023/03/13 02:55:30;;;;;;;0.10;0.03;;;;;;;17.13;100.00;96829.44;7392526;19;20025;-81
2023/03/13 02:57:56;;;;;;;0.20;0.20;;;;;;;17.11;100.00;96827.19;7390660;19;20267;-81
2023/03/13 03:00:25;;;;;;;0.17;0.17;;;;;;;17.00;100.00;96827.78;7390535;19;20028;-81
2023/03/13 03:02:53;;;;;;;0.10;0.10;;;;;;;16.98;100.00;96838.88;7391687;19;20014;-81
2023/03/13 03:05:21;;;;;;;0.10;0.10;;;;;;;17.07;100.00;96835.34;7389306;19;20330;-81
2023/03/13 03:07:49;;;;;;;0.10;0.10;;;;;;;17.13;100.00;96832.25;7388534;19;20014;-81
2023/03/13 03:10:16;;;;;;;0.10;0.00;;;;;;;17.32;100.00;96824.53;7389619;19;20027;-81
2023/03/13 03:12:43;;;;;;;0.40;0.10;;;;;;;17.52;100.00;96825.22;7391694;19;20090;-80
2023/03/13 03:15:10;;;;;;;0.10;0.10;;;;;;;17.10;100.00;96822.16;7393008;19;20077;-83
2023/03/13 03:17:39;;;;;;;0.10;0.00;;;;;;;17.11;100.00;96815.19;7391480;19;20006;-84
2023/03/13 03:20:10;;;;;;;0.10;0.10;;;;;;;16.76;100.00;96814.78;7392881;19;20524;-83
2023/03/13 03:22:39;;;;;;;0.95;0.20;;;;;;;17.57;100.00;96804.47;7396005;19;20018;-83
2023/03/13 03:25:07;;;;;;;0.25;0.25;;;;;;;17.23;100.00;96804.84;7391079;19;20010;-82
2023/03/13 03:27:33;;;;;;;0.40;0.40;;;;;;;18.25;100.00;96796.47;7391199;19;20010;-84
2023/03/13 03:29:59;;;;;;;0.10;0.00;;;;;;;17.24;100.00;96800.66;7390209;19;20422;-84
2023/03/13 03:32:26;;;;;;;0.10;0.00;;;;;;;21.72;100.00;96803.00;7395297;19;20022;-83
2023/03/13 03:34:53;;;;;;;0.10;0.10;;;;;;;21.66;100.00;96788.50;7389628;19;20019;-82
2023/03/13 03:37:20;;;;;;;0.38;0.00;;;;;;;20.60;100.00;96790.94;7391199;19;20014;-80
2023/03/13 03:39:46;;;;;;;0.10;0.00;;;;;;;21.21;100.00;96789.50;7390254;19;20035;-82
2023/03/13 03:42:12;;;;;;;0.10;0.00;;;;;;;17.37;100.00;96783.31;7394637;19;20033;-81
2023/03/13 03:44:38;;;;;;;0.10;0.10;;;;;;;16.88;100.00;96781.19;7388430;19;20015;-81
2023/03/13 03:47:05;;;;;;;0.10;0.10;;;;;;;16.73;100.00;96792.75;7392531;19;20074;-82
2023/03/13 03:49:35;;;;;;;0.10;0.00;;;;;;;25.30;100.00;96756.81;7390364;19;20031;-81
2023/03/13 03:52:01;;;;;;;0.40;0.20;;;;;;;22.86;100.00;96752.94;7393413;19;20018;-80
2023/03/13 03:54:33;;;;;;;5.78;0.52;;;;;;;20.49;100.00;96747.19;7389093;19;20049;-80
2023/03/13 03:57:00;;;;;;;0.10;0.00;;;;;;;18.45;100.00;96741.50;7387734;19;20014;-81
2023/03/13 03:59:26;;;;;;;0.65;0.22;;;;;;;16.81;100.00;96731.50;7389664;19;20553;-80
2023/03/13 04:02:03;;;;;;;0.77;0.28;;;;;;;16.44;100.00;96728.81;7393009;19;20032;-80
2023/03/13 04:04:31;;;;;;;0.10;0.10;;;;;;;16.45;100.00;96716.28;7388926;19;20043;-81
2023/03/13 04:07:03;;;;;;;3.90;0.17;;;;;;;16.71;100.00;96711.09;7387622;19;20007;-80
2023/03/13 04:09:30;;;;;;;0.10;0.00;;;;;;;23.67;100.00;96698.59;7388346;19;20421;-81
2023/03/13 04:11:57;;;;;;;0.68;0.20;;;;;;;25.08;93.26;96701.09;7394362;19;20394;-80
2023/03/13 04:14:23;;;;;;;0.77;0.63;;;;;;;24.84;90.46;96689.44;7389614;19;20022;-81
2023/03/13 04:16:49;;;;;;;0.90;0.10;;;;;;;21.26;100.00;96689.31;7391440;19;20038;-81
2023/03/13 04:19:16;;;;;;;0.10;0.10;;;;;;;18.20;100.00;96694.06;7389725;19;20011;-80
2023/03/13 04:21:42;;;;;;;0.45;0.10;;;;;;;19.36;100.00;96692.38;7392565;19;20018;-80
2023/03/13 04:24:13;;;;;;;1.13;0.70;;;;;;;17.11;100.00;96686.59;7388777;19;20390;-80
2023/03/13 04:26:41;;;;;;;1.02;0.47;;;;;;;16.71;100.00;96688.63;7387458;19;20042;-80
2023/03/13 04:29:08;;;;;;;2.50;0.38;;;;;;;16.60;100.00;96681.53;7389059;19;20014;-80
2023/03/13 04:31:49;;;;;;;2.58;0.63;;;;;;;16.46;100.00;96695.25;7392024;19;20019;-80
2023/03/13 04:34:47;;;;;;;0.20;0.20;;;;;;;16.37;100.00;96679.16;7395813;19;20015;-81
2023/03/13 04:37:34;;;;;;;0.57;0.25;;;;;;;16.40;100.00;96682.84;7396856;19;20044;-80
2023/03/13 04:40:23;;;;;;;2.85;0.90;;;;;;;16.41;100.00;96676.66;7395993;19;20007;-81
2023/03/13 04:43:00;;;;;;;0.10;0.10;;;;;;;16.34;100.00;96660.69;7396900;19;20168;-81
2023/03/13 04:45:45;;;;;;;0.20;0.20;;;;;;;16.14;100.00;96664.06;7398458;19;20014;-81
2023/03/13 04:48:22;;;;;;;0.40;0.40;;;;;;;16.12;100.00;96659.06;7396097;19;20014;-81
2023/03/13 04:51:07;;;;;;;1.17;0.50;;;;;;;16.08;100.00;96646.78;7399100;19;20015;-80
2023/03/13 04:54:02;;;;;;;2.88;0.50;;;;;;;16.86;100.00;96637.69;7395677;19;20544;-80
2023/03/13 04:56:49;;;;;;;2.95;0.68;;;;;;;18.01;100.00;96630.16;7392267;19;20011;-82
2023/03/13 04:59:32;;;;;;;6.75;0.47;;;;;;;16.63;100.00;96633.31;7395496;19;20018;-81
2023/03/13 05:02:16;;;;;;;0.52;0.52;;;;;;;16.32;100.00;96621.22;7399150;19;20010;-82
2023/03/13 05:05:03;;;;;;;13.05;0.38;;;;;;;16.06;100.00;96632.63;7392567;19;20026;-82
2023/03/13 05:07:49;;;;;;;3.20;0.73;;;;;;;16.10;100.00;96628.03;7394690;19;20025;-83
2023/03/13 05:10:46;;;;;;;0.73;0.20;;;;;;;16.12;100.00;96616.94;7390703;19;20019;-82
2023/03/13 05:13:30;;;;;;;0.30;0.30;;;;;;;16.23;100.00;96612.81;7395685;19;20562;-82
2023/03/13 05:16:26;;;;;;;0.73;0.70;;;;;;;16.24;100.00;96614.28;7395276;19;20612;-82
2023/03/13 05:18:55;;;;;;;1.13;0.63;;;;;;;16.12;100.00;96605.72;7396531;19;20026;-82
2023/03/13 05:21:35;;;;;;;7.30;0.70;;;;;;;16.06;100.00;96607.34;7396295;19;20007;-80
2023/03/13 05:24:24;;;;;;;0.47;0.47;;;;;;;16.08;100.00;96597.00;7393095;19;20093;-82
2023/03/13 05:26:50;;;;;;;0.80;0.40;;;;;;;16.07;100.00;96587.09;7392042;19;20026;-82
2023/03/13 05:29:22;;;;;;;0.10;0.10;;;;;;;16.09;100.00;96592.84;7394617;19;20495;-82
2023/03/13 05:32:05;;;;;;;0.10;0.00;;;;;;;16.14;100.00;96600.25;7396972;19;20038;-81
2023/03/13 05:34:58;;;;;;;0.80;0.35;;;;;;;16.52;100.00;96588.25;7393016;19;20010;-81
2023/03/13 05:37:39;;;;;;;;;;;;;;;16.41;100.00;96595.22;7393893;19;20032;-80
2023/03/13 05:40:13;;;;;;;0.20;0.20;;;;;;;16.20;100.00;96614.00;7394107;19;19918;-80
2023/03/13 05:43:06;;;;;;;0.80;0.43;;;;;;;16.13;100.00;96576.34;7393009;19;20019;-80
2023/03/13 05:45:47;;;;;;;0.95;0.85;;;;;;;16.26;100.00;96564.63;7394274;19;20419;-81
2023/03/13 05:48:33;;;;;;;14.30;0.57;;;;;;;16.19;100.00;96562.72;7394006;19;20018;-80
2023/03/13 05:51:11;;;;;;;2.20;0.63;;;;;;;16.10;100.00;96560.66;7395296;19;20042;-81
2023/03/13 05:54:02;;;;;;;2.28;0.90;;;;;;;16.32;100.00;96553.09;7393929;19;20066;-80
2023/03/13 05:56:50;;;;;;;0.30;0.20;;;;;;;18.25;100.00;96538.06;7390288;19;20006;-80
2023/03/13 05:59:31;;;;;;;0.17;0.10;;;;;;;18.62;100.00;96555.19;7391841;19;20010;-80
2023/03/13 06:02:27;;;;;;;6.45;0.90;;;;;;;16.35;100.00;96551.91;7398535;19;20018;-81
2023/03/13 06:04:53;;;;;;;1.23;0.32;;;;;;;16.08;100.00;96554.16;7391479;19;20018;-80
2023/03/13 06:07:19;;;;;;;6.07;0.80;;;;;;;15.96;100.00;96545.59;7391539;19;20015;-80
2023/03/13 06:09:47;;;;;;;14.70;1.13;;;;;;;16.06;100.00;96539.97;7390852;19;20649;-80
2023/03/13 06:12:13;;;;;;;6.25;1.08;;;;;;;15.85;100.00;96549.03;7394276;19;20018;-80
2023/03/13 06:14:39;;;;;;;14.55;1.45;;;;;;;16.24;100.00;96553.25;7394863;19;20022;-80
2023/03/13 06:17:21;;;;;;;2.00;1.17;;;;;;;25.00;88.10;96544.88;7390270;19;20039;-80
2023/03/13 06:19:47;;;;;;;1.38;1.30;;;;;;;18.94;100.00;96543.06;7391058;19;20044;-81
2023/03/13 06:22:15;;;;;;;1.15;0.80;;;;;;;17.55;100.00;96548.28;7394176;19;20014;-80
2023/03/13 06:24:43;;;;;;;4.07;1.40;;;;;;;16.54;100.00;96535.78;7391654;19;20022;-80
2023/03/13 06:27:10;;;;;;;2.17;0.38;;;;;;;16.40;100.00;96540.34;7389646;19;20055;-80
2023/03/13 06:29:36;;;;;;;5.88;0.77;;;;;;;16.27;100.00;96529.59;7392051;19;20596;-79
2023/03/13 06:32:02;;;;;;;17.27;2.40;;;;;;;16.20;100.00;96533.31;7394499;19;20039;-80
2023/03/13 06:34:28;;;;;;;7.03;0.43;;;;;;;16.19;100.00;96533.91;7393024;19;20053;-79
2023/03/13 06:36:57;;;;;;;3.60;0.93;;;;;;;16.13;100.00;96531.41;7391375;19;20118;-79
2023/03/13 06:39:23;;;;;;;0.30;0.30;;;;;;;16.45;100.00;96533.69;7393431;19;20018;-79
2023/03/13 06:41:49;;;;;;;1.58;0.43;;;;;;;16.91;100.00;96527.78;7395747;19;20017;-78
2023/03/13 06:44:15;;;;;;;1.55;0.80;;;;;;;16.92;100.00;96523.63;7392882;19;20022;-79
2023/03/13 06:46:41;;;;;;;4.25;1.63;;;;;;;17.01;100.00;96522.09;7393092;19;20035;-78
2023/03/13 06:49:08;;;;;;;13.57;1.98;;;;;;;16.93;100.00;96518.75;7391983;19;20010;-78
2023/03/13 06:51:34;;;;;;;5.75;1.73;;;;;;;17.06;100.00;96521.78;7394410;19;20047;-81
2023/03/13 06:54:02;;;;;;;7.43;1.05;;;;;;;16.99;100.00;96514.25;7392224;19;20517;-79
2023/03/13 06:56:28;;;;;;;0.30;0.30;;;;;;;17.00;100.00;96520.63;7386453;19;20015;-81
2023/03/13 06:58:54;;;;;;;4.25;1.25;;;;;;;16.86;100.00;96503.53;7391631;19;20427;-81
2023/03/13 07:01:20;;;;;;;3.75;1.30;;;;;;;16.79;100.00;96500.91;7394598;19;20099;-80
2023/03/13 07:03:47;;;;;;;0.10;0.10;;;;;;;16.90;100.00;96505.88;7392558;19;20436;-81
2023/03/13 07:06:14;;;;;;;14.43;2.13;;;;;;;16.82;100.00;96513.75;7390611;19;20026;-81
2023/03/13 07:08:41;;;;;;;1.85;1.10;;;;;;;16.80;100.00;96513.63;7392850;19;20555;-81
2023/03/13 07:11:10;;;;;;;0.90;0.52;;;;;;;16.66;100.00;96493.72;7392515;19;20070;-82
2023/03/13 07:13:36;;;;;;;4.85;1.60;;;;;;;16.46;100.00;96514.75;7392189;19;20022;-82
2023/03/13 07:16:05;;;;;;;2.20;1.55;;;;;;;16.49;100.00;96500.28;7394405;19;20070;-82
2023/03/13 07:18:33;;;;;;;0.50;0.40;;;;;;;16.52;100.00;96513.13;7392696;19;20471;-82
2023/03/13 07:21:00;;;;;;;4.68;0.75;;;;;;;16.58;100.00;96519.19;7393166;19;20022;-83
2023/03/13 07:23:28;;;;;;;3.75;1.00;;;;;;;16.54;100.00;96513.31;7392142;19;20025;-84
2023/03/13 07:25:56;;;;;;;7.00;1.90;;;;;;;16.41;100.00;96510.94;7396678;19;20018;-83
2023/03/13 07:28:23;;;;;;;4.45;0.77;;;;;;;16.60;100.00;96496.84;7394126;19;20022;-85
2023/03/13 07:30:49;;;;;;;7.28;1.70;;;;;;;16.85;100.00;96506.94;7394745;19;20011;-83
2023/03/13 07:33:16;;;;;;;9.63;1.15;;;;;;;16.94;100.00;96500.53;7392319;19;20058;-83
2023/03/13 07:35:52;;;;;;;5.72;1.38;;;;;;;16.79;100.00;96487.59;7391372;19;20022;-83
2023/03/13 07:38:19;;;;;;;0.63;0.63;;;;;;;16.78;100.00;96488.19;7392043;19;20398;-84
2023/03/13 07:40:53;;;;;;;11.27;1.33;;;;;;;16.66;100.00;96491.66;7393314;19;20497;-83
2023/03/13 07:43:20;;;;;;;4.28;0.88;;;;;;;16.65;100.00;96486.63;7393186;19;20015;-83
2023/03/13 07:46:01;;;;;;;3.15;0.98;;;;;;;16.68;100.00;96477.00;7392304;19;20136;-82
2023/03/13 07:48:33;;;;;;;0.50;0.30;;;;;;;16.61;100.00;96478.66;7391089;19;20493;-83
2023/03/13 07:50:59;;;;;;;7.32;0.40;;;;;;;16.61;100.00;96473.03;7390717;19;20015;-82
2023/03/13 07:53:28;;;;;;;2.22;0.88;;;;;;;16.68;100.00;96486.16;7388931;19;20027;-84
2023/03/13 07:56:00;;;;;;;10.05;1.17;;;;;;;16.64;100.00;96477.47;7390269;19;20014;-83
2023/03/13 07:58:29;;;;;;;0.52;0.52;;;;;;;16.80;100.00;96477.09;7390231;19;20022;-83
2023/03/13 08:00:55;;;;;;;1.83;0.40;;;;;;;16.91;100.00;96482.06;7392123;19;20014;-82
2023/03/13 08:03:23;;;;;;;4.70;0.63;;;;;;;16.96;100.00;96478.91;7389433;19;20011;-82
2023/03/13 08:06:04;;;;;;;12.68;1.05;;;;;;;16.99;100.00;96485.41;7389019;19;20022;-82
2023/03/13 08:08:30;;;;;;;;;;;;;;;16.96;100.00;96486.59;7397448;19;20023;-82
2023/03/13 08:11:01;;;;;;;3.60;0.93;;;;;;;16.95;100.00;96482.34;7400133;19;20552;-83
2023/03/13 08:13:28;;;;;;;0.28;0.20;;;;;;;16.96;100.00;96483.78;7396922;19;20010;-82
2023/03/13 08:16:09;;;;;;;0.90;0.30;;;;;;;17.05;100.00;96491.44;7399033;19;20011;-83
2023/03/13 08:18:37;;;;;;;0.40;0.40;;;;;;;16.79;100.00;96486.84;7396819;19;20477;-82
2023/03/13 08:21:09;;;;;;;0.82;0.40;;;;;;;16.78;100.00;96479.75;7398124;19;20058;-82
2023/03/13 08:23:35;;;;;;;4.85;1.38;;;;;;;16.81;100.00;96484.16;7396322;19;20014;-83
2023/03/13 08:26:06;;;;;;;0.17;0.17;;;;;;;16.84;100.00;96482.97;7394528;19;20036;-82
2023/03/13 08:28:33;;;;;;;4.07;1.35;;;;;;;16.66;100.00;96477.59;7396719;19;20021;-83
2023/03/13 08:31:12;;;;;;;0.35;0.35;;;;;;;16.95;100.00;96477.44;7398398;19;20416;-83
2023/03/13 08:33:41;;;;;;;0.40;0.40;;;;;;;16.82;100.00;96477.22;7399013;19;20026;-83
2023/03/13 08:36:09;;;;;;;0.52;0.52;;;;;;;16.82;100.00;96468.78;7397783;19;20111;-84
2023/03/13 08:38:36;;;;;;;0.10;0.10;;;;;;;18.45;100.00;96471.69;7398411;19;20011;-84
2023/03/13 08:41:03;;;;;;;0.20;0.20;;;;;;;16.98;100.00;96475.53;7399567;19;20369;-83
2023/03/13 08:43:29;;;;;;;0.30;0.22;;;;;;;18.81;100.00;96476.03;7397875;19;20420;-83
2023/03/13 08:45:55;;;;;;;7.25;0.75;;;;;;;17.56;100.00;96482.22;7397284;19;20011;-83
2023/03/13 08:48:21;;;;;;;1.85;0.63;;;;;;;17.37;100.00;96471.81;7396813;19;20107;-82
2023/03/13 08:51:17;;;;;;;0.20;0.20;;;;;;;17.22;100.00;96477.09;7395481;19;20011;-83
2023/03/13 08:53:44;;;;;;;3.50;0.25;;;;;;;24.26;99.33;96462.28;7395180;19;20095;-82
2023/03/13 08:56:13;;;;;;;2.25;0.20;;;;;;;18.85;100.00;96473.44;7393213;19;20477;-81
2023/03/13 08:58:40;;;;;;;0.35;0.35;;;;;;;18.11;100.00;96453.38;7396570;19;20006;-83
2023/03/13 09:01:08;;;;;;;0.30;0.22;;;;;;;17.27;100.00;96459.91;7396917;19;20074;-82
2023/03/13 09:03:35;;;;;;;1.38;0.50;;;;;;;18.01;100.00;96454.84;7396736;19;20022;-82
2023/03/13 09:06:02;;;;;;;0.10;0.10;;;;;;;19.00;100.00;96453.19;7394380;19;20492;-83
2023/03/13 09:08:29;;;;;;;2.40;0.38;;;;;;;17.80;100.00;96460.53;7396561;19;20015;-82
2023/03/13 09:10:57;;;;;;;1.60;0.55;;;;;;;16.95;100.00;96471.09;7395995;19;20026;-82
2023/03/13 09:13:24;;;;;;;0.45;0.43;;;;;;;16.92;100.00;96466.66;7397067;19;20022;-82
2023/03/13 09:16:05;;;;;;;3.13;0.60;;;;;;;16.92;100.00;96472.28;7397013;19;20035;-84
2023/03/13 09:18:32;;;;;;;1.77;0.20;;;;;;;17.39;100.00;96468.41;7392633;19;20469;-83
2023/03/13 09:20:58;;;;;;;0.10;0.10;;;;;;;17.80;100.00;96472.50;7397996;19;20014;-83
2023/03/13 09:23:25;;;;;;;0.30;0.30;;;;;;;17.90;100.00;96476.00;7396151;19;20019;-82
2023/03/13 09:25:52;;;;;;;0.88;0.28;;;;;;;16.49;100.00;96466.56;7393097;19;20030;-82
2023/03/13 09:28:19;;;;;;;0.10;0.00;;;;;;;16.37;100.00;96457.28;7396319;19;20453;-83
2023/03/13 09:30:45;;;;;;;1.73;0.45;;;;;;;16.41;100.00;96460.41;7396836;19;20022;-82
2023/03/13 09:33:11;;;;;;;0.15;0.15;;;;;;;16.40;100.00;96464.53;7396708;19;20075;-83
2023/03/13 09:35:38;;;;;;;3.95;0.65;;;;;;;16.35;100.00;96459.94;7392947;19;20018;-82
2023/03/13 09:38:05;;;;;;;0.10;0.10;;;;;;;16.28;100.00;96460.13;7393136;19;20043;-82
2023/03/13 09:40:40;;;;;;;1.13;0.30;;;;;;;16.14;100.00;96457.06;7395484;19;20073;-83
2023/03/13 09:43:23;;;;;;;0.95;0.60;;;;;;;16.40;100.00;96458.91;7395780;19;20044;-82
2023/03/13 09:45:52;;;;;;;0.10;0.10;;;;;;;18.47;100.00;96465.47;7393909;19;20035;-82
2023/03/13 09:48:34;;;;;;;0.20;0.15;;;;;;;17.81;100.00;96465.56;7393316;19;20043;-83
2023/03/13 09:51:20;;;;;;;6.82;0.57;;;;;;;17.31;100.00;96462.25;7392674;19;20019;-82
2023/03/13 09:54:04;;;;;;;1.05;0.43;;;;;;;18.18;100.00;96469.34;7392547;19;20031;-82
2023/03/13 09:56:43;;;;;;;0.90;0.55;;;;;;;17.85;100.00;96468.63;7392595;19;20039;-82
2023/03/13 09:59:17;;;;;;;0.22;0.10;;;;;;;19.34;100.00;96466.50;7396420;19;20486;-84
2023/03/13 10:01:45;;;;;;;0.20;0.20;;;;;;;17.61;100.00;96466.31;7398644;19;20014;-82
2023/03/13 10:04:30;;;;;;;0.10;0.00;;;;;;;17.87;100.00;96465.19;7394717;19;20022;-83
2023/03/13 10:06:56;;;;;;;1.08;0.20;;;;;;;17.62;100.00;96471.38;7394675;19;20711;-83
2023/03/13 10:09:29;;;;;;;0.10;0.00;;;;;;;17.49;100.00;96471.88;7395489;19;20050;-83
2023/03/13 10:12:11;;;;;;;0.10;0.00;;;;;;;18.05;100.00;96478.38;7396491;19;20031;-84
2023/03/13 10:14:51;;;;;;;0.10;0.10;;;;;;;18.92;100.00;96473.19;7394443;19;20032;-83
2023/03/13 10:17:30;;;;;;;0.10;0.10;;;;;;;18.19;100.00;96473.59;7395888;19;20035;-83
2023/03/13 10:20:00;;;;;;;0.10;0.10;;;;;;;19.65;100.00;96477.47;7393360;19;20576;-82
2023/03/13 10:22:30;;;;;;;1.05;0.57;;;;;;;19.07;100.00;96480.41;7396837;19;20370;-82
2023/03/13 10:25:05;;;;;;;5.47;1.10;;;;;;;17.92;100.00;96473.31;7392276;19;20018;-82
2023/03/13 10:27:42;;;;;;;4.68;0.40;;;;;;;21.04;99.73;96476.63;7393659;19;20007;-84
2023/03/13 10:30:21;;;;;;;2.33;1.23;;;;;;;19.84;100.00;96487.72;7392709;19;20014;-84
2023/03/13 10:32:48;;;;;;;4.55;1.23;;;;;;;18.61;100.00;96486.06;7393218;19;20029;-84
2023/03/13 10:35:30;;;;;;;3.13;0.50;;;;;;;18.15;100.00;96495.16;7392260;19;20025;-83
2023/03/13 10:38:10;;;;;;;7.93;1.20;;;;;;;25.66;88.82;96483.16;7393043;19;20022;-84
2023/03/13 10:40:36;;;;;;;17.10;2.38;;;;;;;23.49;84.47;96492.53;7391433;19;20022;-83
2023/03/13 10:43:05;;;;;;;22.73;3.65;;;;;;;18.19;100.00;96507.41;7391279;19;20018;-83
2023/03/13 10:45:34;;;;;;;3.45;0.98;;;;;;;17.05;100.00;96497.06;7393442;19;20046;-84
2023/03/13 10:48:17;;;;;;;1.75;0.50;;;;;;;16.40;100.00;96505.91;7392584;19;20019;-83
2023/03/13 10:50:46;;;;;;;0.70;0.30;;;;;;;16.34;100.00;96519.53;7392731;19;20396;-84
2023/03/13 10:53:29;;;;;;;9.30;0.88;;;;;;;16.61;100.00;96500.41;7390368;19;20078;-84
2023/03/13 10:56:04;;;;;;;7.10;1.67;;;;;;;16.85;100.00;96509.75;7392222;19;20018;-84
2023/03/13 10:58:47;;;;;;;0.80;0.80;;;;;;;19.65;100.00;96502.88;7392853;19;20043;-82
2023/03/13 11:01:16;;;;;;;3.13;1.23;;;;;;;19.95;100.00;96504.59;7394478;19;20010;-83
2023/03/13 11:03:44;;;;;;;7.20;1.08;;;;;;;21.22;100.00;96507.97;7391988;19;20011;-83
2023/03/13 11:06:36;;;;;;;0.57;0.50;;;;;;;20.96;100.00;96510.84;7393149;19;20014;-84
2023/03/13 11:09:09;;;;;;;2.42;0.93;;;;;;;20.72;100.00;96509.59;7393124;19;20125;-81
2023/03/13 11:11:51;;;;;;;0.60;0.30;;;;;;;19.46;100.00;96506.75;7394741;19;20039;-82
2023/03/13 11:14:21;;;;;;;1.10;0.70;;;;;;;17.95;100.00;96516.41;7394507;19;20011;-82
2023/03/13 11:16:59;;;;;;;0.47;0.22;;;;;;;21.90;100.00;96508.59;7394267;19;20048;-80
2023/03/13 11:19:48;;;;;;;4.30;0.52;;;;;;;17.68;100.00;96516.78;7389064;19;20014;-81
2023/03/13 11:22:40;;;;;;;1.58;1.17;;;;;;;17.03;100.00;96516.59;7390421;19;20593;-80
2023/03/13 11:25:42;;;;;;;5.20;0.93;;;;;;;17.08;100.00;96527.53;7388393;19;20066;-80
2023/03/13 11:28:15;;;;;;;0.10;0.10;;;;;;;17.18;100.00;96524.66;7384681;19;20015;-81
2023/03/13 11:31:17;;;;;;;2.15;0.47;;;;;;;21.41;100.00;96530.16;7387246;19;20014;-82
2023/03/13 11:34:01;;;;;;;0.10;0.10;;;;;;;23.85;94.24;96534.56;7387176;19;20026;-81
2023/03/13 11:36:46;;;;;;;0.38;0.30;;;;;;;19.03;100.00;96545.03;7387787;19;20022;-80
2023/03/13 11:39:15;;;;;;;1.08;0.52;;;;;;;18.07;100.00;96540.44;7390493;19;20022;-82
2023/03/13 11:41:57;;;;;;;2.53;0.70;;;;;;;24.63;94.07;96522.81;7393152;19;20014;-83
2023/03/13 11:44:54;;;;;;;0.55;0.32;;;;;;;23.08;97.40;96530.50;7388767;19;20010;-81
2023/03/13 11:47:29;;;;;;;0.22;0.20;;;;;;;20.86;100.00;96518.81;7390918;19;20039;-82
2023/03/13 11:50:24;;;;;;;2.47;0.47;;;;;;;20.24;100.00;96535.19;7389769;19;20082;-83
2023/03/13 11:53:13;;;;;;;4.05;0.40;;;;;;;26.47;79.29;96527.19;7389067;19;20446;-83